Akeeva — WDE7272 — position and weather

sailwx.info

Track history (hours):
 
Tides and Currents Weather Stations Pressure Air Temp Water Temp Dewpoint Dewpoint Depression Visibility Wind Speed Wind Dir Waves Ship Positions

Akeeva

Owner: Cann, John P, Vancouver, WA. More information available from US FCC via Universal Licensing System and Coast Guard Vessel Documentation Center.

Last reported at 2015-Jul-02 22:06 UTC. Time now 2015-Jul-04 01:43 UTC.
Position N 47°43' W 122°33'.

Length 16 m.

Type: Pleasure craft. MMSI: 367391170.

Date/timePositionNaut miles runAvg speedWind from/ knotsBaromVisibWave heightAir tempDewpointWater temp
2015-Jul-02 22:06N 47°43' W 122°33'5 8.7
2015-Jul-02 21:33N 47°41' W 122°26'1 0.0
2015-Jul-01 02:15N 47°41' W 122°24'0 0.0
2015-Jul-01 01:33N 47°41' W 122°24'0 0.0
2015-Jul-01 01:21N 47°41' W 122°24'0 0.0
2015-Jun-30 22:30N 47°41' W 122°24'0 0.1
2015-Jun-30 22:27N 47°41' W 122°24'0 0.0
2015-Jun-30 02:10N 47°41' W 122°24'0 0.0
2015-Jun-30 02:10N 47°41' W 122°24'0 0.0
2015-Jun-30 01:31N 47°41' W 122°24'0 0.0
2015-Jun-30 01:04N 47°41' W 122°24'0 0.0
2015-Jun-30 00:31N 47°41' W 122°24'0 0.0
2015-Jun-30 00:28N 47°41' W 122°24'3 0.1
2015-Jun-29 03:05N 47°38' W 122°27'510.0
2015-Jun-29 02:33N 47°33' W 122°28'1110.1
2015-Jun-29 01:29N 47°23' W 122°32'3 3.0
2015-Jun-29 00:33N 47°23' W 122°28'1 1.2
2015-Jun-28 23:31N 47°24' W 122°28'0 0.0
2015-Jun-28 22:31N 47°24' W 122°28'0 0.0
2015-Jun-28 21:31N 47°24' W 122°28'0 0.0
2015-Jun-28 20:31N 47°24' W 122°28'0 0.0
2015-Jun-28 19:31N 47°24' W 122°28'0 0.0
2015-Jun-28 18:31N 47°24' W 122°28'0 0.0
2015-Jun-28 17:31N 47°24' W 122°28'0 0.0
2015-Jun-28 16:31N 47°24' W 122°28'0 0.0
2015-Jun-28 15:31N 47°24' W 122°28'0 0.0
2015-Jun-28 14:31N 47°24' W 122°28'0 0.0
2015-Jun-28 13:31N 47°24' W 122°28'0 0.0
2015-Jun-28 12:28N 47°24' W 122°28'0 0.0
2015-Jun-28 11:31N 47°24' W 122°28'0 0.0
2015-Jun-28 10:31N 47°24' W 122°28'0 0.0
2015-Jun-28 09:31N 47°24' W 122°28'0 0.0
2015-Jun-28 08:31N 47°24' W 122°28'0 0.0
2015-Jun-28 07:31N 47°24' W 122°28'0 0.0
2015-Jun-28 06:31N 47°24' W 122°28'0 0.0
2015-Jun-28 05:31N 47°24' W 122°28'0 0.0
2015-Jun-28 04:31N 47°24' W 122°28'0 0.0
2015-Jun-28 03:31N 47°24' W 122°28'0 0.0
2015-Jun-28 02:31N 47°24' W 122°28'0 0.0
2015-Jun-28 01:31N 47°24' W 122°28'0 0.0
2015-Jun-28 00:31N 47°24' W 122°28'0 0.0
2015-Jun-27 23:28N 47°24' W 122°28'0 0.0
2015-Jun-27 22:31N 47°24' W 122°28'0 0.0
2015-Jun-27 21:31N 47°24' W 122°28'4 4.1
2015-Jun-27 20:33N 47°20' W 122°27'9 8.8
2015-Jun-27 19:33N 47°29' W 122°24'  
Track history (hours):
 
Tides and Currents Weather Stations Pressure Air Temp Water Temp Dewpoint Dewpoint Depression Visibility Wind Speed Wind Dir Waves Ship Positions

Akeeva

Owner: Cann, John P, Vancouver, WA. More information available from US FCC via Universal Licensing System and Coast Guard Vessel Documentation Center.

Last reported at 2015-Jul-02 22:06 UTC. Time now 2015-Jul-04 01:43 UTC.
Position N 47°43' W 122°33'.

Length 16 m.

Type: Pleasure craft. MMSI: 367391170.

Date/timePositionNaut miles runAvg speedWind from/ knotsBaromVisibWave heightAir tempDewpointWater temp
2015-Jul-02 22:06N 47°43' W 122°33'5 8.7
2015-Jul-02 21:33N 47°41' W 122°26'1 0.0
2015-Jul-01 02:15N 47°41' W 122°24'0 0.0
2015-Jul-01 01:33N 47°41' W 122°24'0 0.0
2015-Jul-01 01:21N 47°41' W 122°24'0 0.0
2015-Jun-30 22:30N 47°41' W 122°24'0 0.1
2015-Jun-30 22:27N 47°41' W 122°24'0 0.0
2015-Jun-30 02:10N 47°41' W 122°24'0 0.0
2015-Jun-30 02:10N 47°41' W 122°24'0 0.0
2015-Jun-30 01:31N 47°41' W 122°24'0 0.0
2015-Jun-30 01:04N 47°41' W 122°24'0 0.0
2015-Jun-30 00:31N 47°41' W 122°24'0 0.0
2015-Jun-30 00:28N 47°41' W 122°24'3 0.1
2015-Jun-29 03:05N 47°38' W 122°27'510.0
2015-Jun-29 02:33N 47°33' W 122°28'1110.1
2015-Jun-29 01:29N 47°23' W 122°32'3 3.0
2015-Jun-29 00:33N 47°23' W 122°28'1 1.2
2015-Jun-28 23:31N 47°24' W 122°28'0 0.0
2015-Jun-28 22:31N 47°24' W 122°28'0 0.0
2015-Jun-28 21:31N 47°24' W 122°28'0 0.0
2015-Jun-28 20:31N 47°24' W 122°28'0 0.0
2015-Jun-28 19:31N 47°24' W 122°28'0 0.0
2015-Jun-28 18:31N 47°24' W 122°28'0 0.0
2015-Jun-28 17:31N 47°24' W 122°28'0 0.0
2015-Jun-28 16:31N 47°24' W 122°28'0 0.0
2015-Jun-28 15:31N 47°24' W 122°28'0 0.0
2015-Jun-28 14:31N 47°24' W 122°28'0 0.0
2015-Jun-28 13:31N 47°24' W 122°28'0 0.0
2015-Jun-28 12:28N 47°24' W 122°28'0 0.0
2015-Jun-28 11:31N 47°24' W 122°28'0 0.0
2015-Jun-28 10:31N 47°24' W 122°28'0 0.0
2015-Jun-28 09:31N 47°24' W 122°28'0 0.0
2015-Jun-28 08:31N 47°24' W 122°28'0 0.0
2015-Jun-28 07:31N 47°24' W 122°28'0 0.0
2015-Jun-28 06:31N 47°24' W 122°28'0 0.0
2015-Jun-28 05:31N 47°24' W 122°28'0 0.0
2015-Jun-28 04:31N 47°24' W 122°28'0 0.0
2015-Jun-28 03:31N 47°24' W 122°28'0 0.0
2015-Jun-28 02:31N 47°24' W 122°28'0 0.0
2015-Jun-28 01:31N 47°24' W 122°28'0 0.0
2015-Jun-28 00:31N 47°24' W 122°28'0 0.0
2015-Jun-27 23:28N 47°24' W 122°28'0 0.0
2015-Jun-27 22:31N 47°24' W 122°28'0 0.0
2015-Jun-27 21:31N 47°24' W 122°28'4 4.1
2015-Jun-27 20:33N 47°20' W 122°27'9 8.8
2015-Jun-27 19:33N 47°29' W 122°24'  

Dump ship's entire track history